Time;durP1;ratioP1;P1;durP2;ratioP2;P2;SDS_P1;SDS_P2;PMS_P1;PMS_P2;Temp;Humidity;BMP_temperature;BMP_pressure;BME280_temperature;BME280_humidity;BME280_pressure;Samples;Min_cycle;Max_cycle;Signal;HPM_P1;HPM_P2
2022/07/14 00:01:51;;;;;;;3.90;1.77;;;;;;;;;;4900857;29;20040;-84
2022/07/14 00:04:36;;;;;;;3.25;1.75;;;;;;;;;;4900440;29;20041;-83
2022/07/14 00:07:22;;;;;;;2.88;1.77;;;;;;;;;;4898798;29;20048;-84
2022/07/14 00:10:08;;;;;;;3.65;2.05;;;;;;;;;;4919209;29;20052;-84
2022/07/14 00:12:53;;;;;;;4.57;1.80;;;;;;;;;;4911225;29;20044;-84
2022/07/14 00:15:38;;;;;;;8.90;2.55;;;;;;;;;;4924970;29;20048;-84
2022/07/14 00:18:23;;;;;;;9.82;1.90;;;;;;;;;;4917919;29;20658;-83
2022/07/14 00:21:08;;;;;;;4.70;1.73;;;;;;;;;;4910640;29;20048;-83
2022/07/14 00:23:53;;;;;;;2.75;1.77;;;;;;;;;;4924488;29;20388;-84
2022/07/14 00:26:42;;;;;;;5.75;1.80;;;;;;;;;;4918495;29;20044;-84
2022/07/14 00:29:28;;;;;;;6.10;1.92;;;;;;;;;;4910511;29;20040;-83
2022/07/14 00:32:13;;;;;;;4.60;2.35;;;;;;;;;;4911017;29;20048;-85
2022/07/14 00:34:59;;;;;;;5.25;2.30;;;;;;;;;;4918759;29;20047;-84
2022/07/14 00:37:44;;;;;;;9.45;2.40;;;;;;;;;;4904505;29;20044;-83
2022/07/14 00:40:30;;;;;;;4.85;2.28;;;;;;;;;;4919177;29;20044;-83
2022/07/14 00:43:16;;;;;;;4.82;1.98;;;;;;;;;;4891490;29;20056;-83
2022/07/14 00:46:01;;;;;;;3.58;2.30;;;;;;;;;;4899935;29;20048;-84
2022/07/14 00:48:47;;;;;;;3.35;2.00;;;;;;;;;;4899276;29;20045;-85
2022/07/14 00:51:33;;;;;;;7.43;3.10;;;;;;;;;;4899754;29;20052;-84
2022/07/14 00:54:25;;;;;;;6.82;3.50;;;;;;;;;;4899800;29;20480;-84
2022/07/14 00:57:10;;;;;;;10.98;5.80;;;;;;;;;;4891679;29;20049;-83
2022/07/14 00:59:56;;;;;;;11.27;5.85;;;;;;;;;;4906164;29;20048;-82
2022/07/14 01:02:43;;;;;;;8.93;3.70;;;;;;;;;;4899639;29;20044;-83
2022/07/14 01:05:28;;;;;;;4.30;2.72;;;;;;;;;;4885625;29;20388;-83
2022/07/14 01:08:14;;;;;;;6.68;2.75;;;;;;;;;;4892059;29;20044;-83
2022/07/14 01:10:59;;;;;;;6.63;2.13;;;;;;;;;;4899603;29;20049;-84
2022/07/14 01:13:45;;;;;;;7.65;2.20;;;;;;;;;;4885293;29;20044;-84
2022/07/14 01:16:30;;;;;;;5.57;1.70;;;;;;;;;;4891457;29;20044;-85
2022/07/14 01:19:16;;;;;;;3.45;1.80;;;;;;;;;;4885252;29;20056;-84
2022/07/14 01:22:02;;;;;;;4.05;1.60;;;;;;;;;;4885752;29;20045;-85
2022/07/14 01:24:49;;;;;;;5.72;1.92;;;;;;;;;;4891485;29;20036;-83
2022/07/14 01:27:35;;;;;;;8.85;1.67;;;;;;;;;;4892353;29;20040;-84
2022/07/14 01:30:20;;;;;;;3.33;1.70;;;;;;;;;;4899438;29;20053;-82
2022/07/14 01:33:06;;;;;;;4.53;1.60;;;;;;;;;;4891281;29;20044;-83
2022/07/14 01:35:51;;;;;;;2.92;1.67;;;;;;;;;;4891378;29;20040;-84
2022/07/14 01:38:36;;;;;;;4.28;1.70;;;;;;;;;;4884549;29;20060;-84
2022/07/14 01:41:21;;;;;;;3.20;1.67;;;;;;;;;;4911699;29;20051;-83
2022/07/14 01:44:07;;;;;;;2.08;1.40;;;;;;;;;;4917933;29;20048;-84
2022/07/14 01:46:53;;;;;;;7.25;1.80;;;;;;;;;;4923806;29;20048;-86
2022/07/14 01:49:39;;;;;;;5.18;2.60;;;;;;;;;;4924173;29;20040;-85
2022/07/14 01:52:26;;;;;;;9.20;2.78;;;;;;;;;;4909468;29;20044;-82
2022/07/14 01:55:11;;;;;;;6.13;2.65;;;;;;;;;;4923905;29;20472;-85
2022/07/14 01:57:57;;;;;;;4.40;2.50;;;;;;;;;;4918962;29;20044;-83
2022/07/14 02:00:42;;;;;;;5.32;2.42;;;;;;;;;;4913979;29;20047;-85
2022/07/14 02:03:27;;;;;;;6.15;2.22;;;;;;;;;;4922287;29;20052;-83
2022/07/14 02:06:13;;;;;;;7.93;2.88;;;;;;;;;;4913997;29;20052;-83
2022/07/14 02:08:59;;;;;;;6.45;2.80;;;;;;;;;;4921703;29;20040;-83
2022/07/14 02:14:49;;;;;;;6.53;2.30;;;;;;;;;;4914111;29;20048;-84
2022/07/14 02:17:34;;;;;;;4.60;2.17;;;;;;;;;;4927129;29;20052;-83
2022/07/14 02:20:19;;;;;;;4.75;1.85;;;;;;;;;;4920853;29;20048;-84
2022/07/14 02:23:07;;;;;;;3.55;1.60;;;;;;;;;;4921814;29;20044;-83
2022/07/14 02:25:52;;;;;;;3.40;1.90;;;;;;;;;;4927177;29;20044;-84
2022/07/14 02:28:37;;;;;;;3.67;1.63;;;;;;;;;;4909945;29;20044;-84
2022/07/14 02:31:22;;;;;;;2.85;1.73;;;;;;;;;;4906362;29;20040;-83
2022/07/14 02:34:07;;;;;;;4.00;1.90;;;;;;;;;;4913236;29;20044;-84
2022/07/14 02:36:52;;;;;;;3.38;1.80;;;;;;;;;;4921638;29;20048;-83
2022/07/14 02:39:38;;;;;;;8.93;4.85;;;;;;;;;;4921553;29;20463;-85
2022/07/14 02:42:24;;;;;;;10.35;5.63;;;;;;;;;;4926200;29;20047;-83
2022/07/14 02:45:10;;;;;;;7.07;4.65;;;;;;;;;;4902335;29;20044;-84
2022/07/14 02:47:57;;;;;;;7.63;4.45;;;;;;;;;;4895001;29;20033;-82
2022/07/14 02:50:42;;;;;;;8.13;4.55;;;;;;;;;;4908771;29;20044;-82
2022/07/14 02:53:28;;;;;;;6.25;4.07;;;;;;;;;;4911143;29;20040;-85
2022/07/14 02:56:13;;;;;;;5.05;2.50;;;;;;;;;;4910777;29;20052;-85
2022/07/14 02:58:59;;;;;;;3.03;2.30;;;;;;;;;;4896995;29;20040;-82
2022/07/14 03:01:49;;;;;;;4.45;2.10;;;;;;;;;;4914268;29;20482;-83
2022/07/14 03:04:39;;;;;;;6.00;1.83;;;;;;;;;;4905719;29;20047;-82
2022/07/14 03:07:24;;;;;;;2.10;1.70;;;;;;;;;;4906181;29;20484;-84
2022/07/14 03:10:10;;;;;;;4.85;2.22;;;;;;;;;;4904392;29;20040;-83
2022/07/14 03:12:56;;;;;;;3.35;1.80;;;;;;;;;;4907078;29;20048;-83
2022/07/14 03:15:42;;;;;;;3.03;1.88;;;;;;;;;;4887672;29;20045;-83
2022/07/14 03:18:28;;;;;;;2.88;1.73;;;;;;;;;;4878069;29;20049;-83
2022/07/14 03:21:13;;;;;;;5.25;2.00;;;;;;;;;;4908326;29;20044;-84
2022/07/14 03:24:06;;;;;;;4.53;2.20;;;;;;;;;;4895189;29;20056;-87
2022/07/14 03:26:52;;;;;;;4.13;2.00;;;;;;;;;;4894283;29;20469;-83
2022/07/14 03:29:41;;;;;;;13.80;2.10;;;;;;;;;;4901977;29;20048;-84
2022/07/14 03:32:27;;;;;;;3.35;1.80;;;;;;;;;;4880680;29;20041;-85
2022/07/14 03:35:13;;;;;;;4.75;2.10;;;;;;;;;;4904400;29;20057;-84
2022/07/14 03:38:00;;;;;;;5.10;1.85;;;;;;;;;;4925316;29;20040;-85
2022/07/14 03:40:45;;;;;;;10.18;2.03;;;;;;;;;;4926095;29;20051;-85
2022/07/14 03:43:31;;;;;;;8.82;2.50;;;;;;;;;;4924657;29;20052;-84
2022/07/14 03:46:19;;;;;;;7.05;2.13;;;;;;;;;;4917030;29;20048;-81
2022/07/14 03:49:14;;;;;;;3.42;1.80;;;;;;;;;;4910478;29;20408;-84
2022/07/14 03:52:01;;;;;;;3.10;1.73;;;;;;;;;;4892883;29;20044;-83
2022/07/14 03:54:48;;;;;;;6.38;2.05;;;;;;;;;;4905175;29;20035;-83
2022/07/14 03:57:36;;;;;;;5.57;2.20;;;;;;;;;;4912242;29;20044;-83
2022/07/14 04:00:22;;;;;;;8.40;2.65;;;;;;;;;;4920005;29;20040;-83
2022/07/14 04:03:09;;;;;;;8.23;2.60;;;;;;;;;;4919249;29;20048;-83
2022/07/14 04:05:55;;;;;;;13.57;3.08;;;;;;;;;;4900091;29;20044;-82
2022/07/14 04:08:42;;;;;;;9.07;3.75;;;;;;;;;;4912055;29;20044;-83
2022/07/14 04:11:29;;;;;;;12.55;5.50;;;;;;;;;;4893888;29;20041;-84
2022/07/14 04:14:15;;;;;;;27.48;13.00;;;;;;;;;;4895216;29;20521;-83
2022/07/14 04:17:00;;;;;;;21.23;9.88;;;;;;;;;;4903498;29;20097;-84
2022/07/14 04:19:46;;;;;;;22.60;10.20;;;;;;;;;;4906995;29;20056;-82
2022/07/14 04:22:32;;;;;;;15.40;6.35;;;;;;;;;;4919409;29;20044;-81
2022/07/14 04:25:17;;;;;;;7.30;3.58;;;;;;;;;;4918784;29;20411;-81
2022/07/14 04:28:03;;;;;;;6.38;1.90;;;;;;;;;;4919050;29;20066;-82
2022/07/14 04:30:48;;;;;;;6.60;2.40;;;;;;;;;;4918534;29;20052;-81
2022/07/14 04:33:34;;;;;;;4.03;1.63;;;;;;;;;;4918032;29;20056;-82
2022/07/14 04:36:23;;;;;;;4.72;2.13;;;;;;;;;;4918024;29;20036;-81
2022/07/14 04:39:08;;;;;;;3.88;1.80;;;;;;;;;;4918094;29;20045;-82
2022/07/14 04:41:54;;;;;;;6.18;2.00;;;;;;;;;;4918398;29;20044;-82
2022/07/14 04:44:41;;;;;;;5.72;1.95;;;;;;;;;;4905003;29;20053;-83
2022/07/14 04:47:27;;;;;;;6.05;2.33;;;;;;;;;;4918350;29;20052;-84
2022/07/14 04:53:18;;;;;;;4.95;2.10;;;;;;;;;;4919044;29;20044;-83
2022/07/14 04:56:22;;;;;;;2.50;1.80;;;;;;;;;;4917838;29;20044;-83
2022/07/14 04:59:16;;;;;;;6.72;2.45;;;;;;;;;;4920864;29;20044;-84
2022/07/14 05:02:02;;;;;;;3.60;1.75;;;;;;;;;;4916731;29;20044;-84
2022/07/14 05:04:47;;;;;;;6.80;1.85;;;;;;;;;;4923793;29;20044;-84
2022/07/14 05:07:33;;;;;;;3.72;1.95;;;;;;;;;;4923816;29;20049;-83
2022/07/14 05:10:21;;;;;;;4.28;1.42;;;;;;;;;;4924389;29;20052;-84
2022/07/14 05:13:07;;;;;;;5.18;1.65;;;;;;;;;;4925843;29;20052;-83
2022/07/14 05:15:53;;;;;;;4.05;1.65;;;;;;;;;;4921309;29;20040;-84
2022/07/14 05:18:39;;;;;;;10.88;2.30;;;;;;;;;;4931325;29;20047;-84
2022/07/14 05:21:26;;;;;;;3.20;1.70;;;;;;;;;;4934583;29;20043;-82
2022/07/14 05:24:12;;;;;;;4.38;1.73;;;;;;;;;;4944995;29;20043;-81
2022/07/14 05:26:59;;;;;;;3.28;1.77;;;;;;;;;;4927654;29;20039;-84
2022/07/14 05:29:45;;;;;;;6.47;1.85;;;;;;;;;;4928400;29;20051;-84
2022/07/14 05:32:31;;;;;;;2.40;1.60;;;;;;;;;;4928302;29;20039;-83
2022/07/14 05:35:16;;;;;;;3.90;1.75;;;;;;;;;;4928351;29;20040;-84
2022/07/14 05:38:02;;;;;;;4.30;1.90;;;;;;;;;;4932044;29;20040;-83
2022/07/14 05:40:46;;;;;;;4.15;2.10;;;;;;;;;;4917106;29;20456;-84
2022/07/14 05:43:32;;;;;;;3.72;1.70;;;;;;;;;;4917164;29;20472;-83
2022/07/14 05:46:19;;;;;;;3.80;1.67;;;;;;;;;;4928273;29;20043;-84
2022/07/14 05:49:06;;;;;;;4.00;1.58;;;;;;;;;;4927074;29;20035;-83
2022/07/14 05:51:51;;;;;;;2.95;1.40;;;;;;;;;;4922977;29;20044;-81
2022/07/14 05:54:36;;;;;;;4.28;2.13;;;;;;;;;;4909227;29;20048;-82
2022/07/14 05:57:24;;;;;;;4.03;1.40;;;;;;;;;;4922731;29;20052;-81
2022/07/14 06:00:09;;;;;;;9.45;1.85;;;;;;;;;;4936074;29;20048;-83
2022/07/14 06:03:01;;;;;;;5.55;1.50;;;;;;;;;;4935920;29;20111;-82
2022/07/14 06:05:48;;;;;;;2.97;1.20;;;;;;;;;;4928660;29;20044;-81
2022/07/14 06:08:35;;;;;;;1.63;1.30;;;;;;;;;;4928303;29;20044;-85
2022/07/14 06:11:21;;;;;;;4.68;1.92;;;;;;;;;;4922742;29;20052;-82
2022/07/14 06:14:07;;;;;;;2.88;1.88;;;;;;;;;;4934775;29;20039;-82
2022/07/14 06:16:54;;;;;;;3.95;1.80;;;;;;;;;;4934082;29;20040;-82
2022/07/14 06:19:39;;;;;;;4.53;1.65;;;;;;;;;;4919416;29;20410;-82
2022/07/14 06:22:25;;;;;;;6.85;1.83;;;;;;;;;;4926832;29;20075;-82
2022/07/14 06:25:10;;;;;;;8.85;2.90;;;;;;;;;;4927778;29;20048;-83
2022/07/14 06:27:56;;;;;;;2.28;1.35;;;;;;;;;;4927197;29;20047;-83
2022/07/14 06:30:41;;;;;;;2.40;1.27;;;;;;;;;;4927923;29;20043;-83
2022/07/14 06:33:27;;;;;;;5.45;1.60;;;;;;;;;;4936003;29;20043;-83
2022/07/14 06:36:17;;;;;;;2.92;1.40;;;;;;;;;;4928328;29;20048;-83
2022/07/14 06:39:02;;;;;;;4.07;1.50;;;;;;;;;;4927890;29;20047;-83
2022/07/14 06:41:50;;;;;;;9.07;1.50;;;;;;;;;;4927163;29;20043;-83
2022/07/14 06:44:39;;;;;;;4.80;1.35;;;;;;;;;;4926721;29;20047;-83
2022/07/14 06:47:26;;;;;;;2.50;1.52;;;;;;;;;;4925717;29;20043;-83
2022/07/14 06:50:12;;;;;;;2.33;1.10;;;;;;;;;;4925876;29;20044;-82
2022/07/14 06:52:57;;;;;;;2.83;1.73;;;;;;;;;;4911321;29;20471;-82
2022/07/14 06:55:41;;;;;;;2.13;1.58;;;;;;;;;;4925942;29;20036;-83
2022/07/14 06:58:27;;;;;;;6.43;1.48;;;;;;;;;;4926353;29;20040;-83
2022/07/14 07:01:13;;;;;;;7.00;1.50;;;;;;;;;;4920239;29;20052;-82
2022/07/14 07:03:58;;;;;;;4.90;1.35;;;;;;;;;;4920182;29;20048;-83
2022/07/14 07:06:44;;;;;;;4.00;1.20;;;;;;;;;;4919439;29;20044;-83
2022/07/14 07:09:30;;;;;;;2.35;1.60;;;;;;;;;;4926093;29;20056;-82
2022/07/14 07:12:15;;;;;;;2.83;1.33;;;;;;;;;;4920149;29;20488;-82
2022/07/14 07:15:00;;;;;;;7.45;3.42;;;;;;;;;;4925541;29;20052;-82
2022/07/14 07:17:46;;;;;;;4.05;1.73;;;;;;;;;;4914545;29;20044;-83
2022/07/14 07:20:35;;;;;;;7.00;1.60;;;;;;;;;;4905350;29;20056;-83
2022/07/14 07:23:20;;;;;;;4.13;1.70;;;;;;;;;;4900982;29;20040;-83
2022/07/14 07:26:06;;;;;;;4.22;1.45;;;;;;;;;;4906358;29;20044;-82
2022/07/14 07:28:54;;;;;;;5.78;2.17;;;;;;;;;;4905523;29;20049;-82
2022/07/14 07:31:40;;;;;;;8.15;2.20;;;;;;;;;;4900779;29;20044;-84
2022/07/14 07:34:26;;;;;;;5.35;1.55;;;;;;;;;;4906447;29;20052;-83
2022/07/14 07:37:11;;;;;;;5.95;1.33;;;;;;;;;;4900608;29;20376;-83
2022/07/14 07:39:57;;;;;;;3.83;1.60;;;;;;;;;;4900723;29;20048;-84
2022/07/14 07:42:43;;;;;;;3.50;1.60;;;;;;;;;;4905703;29;20472;-84
2022/07/14 07:45:28;;;;;;;7.72;2.42;;;;;;;;;;4900638;29;20056;-84
2022/07/14 07:48:14;;;;;;;4.10;1.42;;;;;;;;;;4908300;29;20044;-85
2022/07/14 07:50:59;;;;;;;6.03;1.95;;;;;;;;;;4915659;29;20044;-83
2022/07/14 07:53:45;;;;;;;3.65;1.50;;;;;;;;;;4918344;29;20044;-85
2022/07/14 07:56:30;;;;;;;5.13;1.55;;;;;;;;;;4907416;29;20480;-86
2022/07/14 07:59:16;;;;;;;3.40;1.98;;;;;;;;;;4892621;29;20052;-84
2022/07/14 08:02:02;;;;;;;4.97;2.40;;;;;;;;;;4906462;29;20044;-84
2022/07/14 08:04:48;;;;;;;299.13;265.92;;;;;;;;;;4903296;29;20045;-84
2022/07/14 08:07:34;;;;;;;13.40;8.40;;;;;;;;;;4906927;29;20365;-84
2022/07/14 08:10:20;;;;;;;6.90;2.00;;;;;;;;;;4916777;29;20048;-84
2022/07/14 08:13:07;;;;;;;5.50;2.20;;;;;;;;;;4913669;29;20480;-84
2022/07/14 08:15:52;;;;;;;5.50;1.85;;;;;;;;;;4899899;29;20045;-85
2022/07/14 08:18:38;;;;;;;8.05;2.15;;;;;;;;;;4899698;29;20049;-84
2022/07/14 08:21:24;;;;;;;8.43;1.75;;;;;;;;;;4903469;29;20044;-85
2022/07/14 08:24:09;;;;;;;3.38;1.70;;;;;;;;;;4924756;29;20368;-84
2022/07/14 08:26:55;;;;;;;3.38;1.70;;;;;;;;;;4925406;29;20044;-84
2022/07/14 08:29:41;;;;;;;5.03;1.77;;;;;;;;;;4910441;29;20052;-84
2022/07/14 08:32:41;;;;;;;5.25;1.77;;;;;;;;;;4918490;29;20368;-84
2022/07/14 08:35:27;;;;;;;8.90;1.63;;;;;;;;;;4918237;29;20040;-84
2022/07/14 08:38:12;;;;;;;12.82;3.58;;;;;;;;;;4922769;29;20048;-84
2022/07/14 08:40:58;;;;;;;3.08;1.77;;;;;;;;;;4899997;29;20376;-84
2022/07/14 08:43:45;;;;;;;6.72;1.77;;;;;;;;;;4917282;29;20052;-84
2022/07/14 08:46:36;;;;;;;7.40;1.70;;;;;;;;;;4914615;29;20040;-81
2022/07/14 08:49:24;;;;;;;3.58;1.38;;;;;;;;;;4912133;29;20039;-81
2022/07/14 08:52:10;;;;;;;3.33;1.30;;;;;;;;;;4911313;29;20036;-80
2022/07/14 08:54:57;;;;;;;5.35;1.40;;;;;;;;;;4921899;29;20477;-83
2022/07/14 08:57:43;;;;;;;6.30;1.73;;;;;;;;;;4917135;29;20460;-84
2022/07/14 09:00:28;;;;;;;3.72;1.30;;;;;;;;;;4917775;29;20040;-81
2022/07/14 09:03:13;;;;;;;3.35;1.52;;;;;;;;;;4919404;29;20048;-84
2022/07/14 09:05:59;;;;;;;1.92;1.40;;;;;;;;;;4911932;29;20044;-85
2022/07/14 09:08:54;;;;;;;4.05;1.55;;;;;;;;;;4918955;29;20065;-84
2022/07/14 09:11:48;;;;;;;10.40;1.60;;;;;;;;;;4918256;29;20043;-84
2022/07/14 09:17:57;;;;;;;10.75;1.30;;;;;;;;;;4915843;29;20039;-82
2022/07/14 09:20:42;;;;;;;4.00;1.33;;;;;;;;;;4955335;29;20039;-83
2022/07/14 09:23:35;;;;;;;2.75;1.20;;;;;;;;;;4947516;28;20048;-83
2022/07/14 09:26:21;;;;;;;2.70;1.40;;;;;;;;;;4936421;29;20047;-82
2022/07/14 09:29:07;;;;;;;1.90;1.40;;;;;;;;;;4936722;29;20044;-84
2022/07/14 09:31:52;;;;;;;4.43;1.45;;;;;;;;;;4935998;29;20043;-82
2022/07/14 09:34:38;;;;;;;1.95;1.30;;;;;;;;;;4929801;29;20395;-83
2022/07/14 09:37:25;;;;;;;2.45;1.48;;;;;;;;;;4928695;29;20056;-84
2022/07/14 09:40:15;;;;;;;3.88;1.20;;;;;;;;;;4942802;29;20047;-84
2022/07/14 09:43:03;;;;;;;5.22;1.40;;;;;;;;;;4935590;29;20044;-83
2022/07/14 09:45:54;;;;;;;4.07;1.33;;;;;;;;;;4933358;29;20039;-83
2022/07/14 09:48:39;;;;;;;1.98;1.23;;;;;;;;;;4917315;29;20048;-82
2022/07/14 09:51:25;;;;;;;3.63;1.50;;;;;;;;;;4924085;29;20216;-83
2022/07/14 09:54:11;;;;;;;2.35;1.17;;;;;;;;;;4923197;29;20388;-84
2022/07/14 09:56:56;;;;;;;4.32;1.23;;;;;;;;;;4929012;29;20039;-82
2022/07/14 10:00:11;;;;;;;1.65;1.15;;;;;;;;;;4949055;29;20047;-83
2022/07/14 10:02:56;;;;;;;4.80;1.30;;;;;;;;;;4916854;29;20048;-83
2022/07/14 10:05:42;;;;;;;2.63;1.30;;;;;;;;;;4942724;29;20047;-83
2022/07/14 10:08:34;;;;;;;4.38;1.85;;;;;;;;;;4955183;29;20462;-83
2022/07/14 10:11:20;;;;;;;3.17;1.30;;;;;;;;;;4955075;29;20039;-83
2022/07/14 10:14:06;;;;;;;5.00;1.50;;;;;;;;;;4937507;29;20040;-84
2022/07/14 10:16:52;;;;;;;3.72;1.40;;;;;;;;;;4936088;29;20380;-84
2022/07/14 10:19:37;;;;;;;3.63;1.50;;;;;;;;;;4890963;29;20044;-84
2022/07/14 10:22:23;;;;;;;2.80;1.67;;;;;;;;;;4920674;29;20040;-84
2022/07/14 10:25:12;;;;;;;4.95;1.50;;;;;;;;;;4925646;29;20411;-84
2022/07/14 10:27:59;;;;;;;3.83;1.40;;;;;;;;;;4921187;29;20440;-86
2022/07/14 10:31:07;;;;;;;3.08;1.50;;;;;;;;;;4912843;29;20040;-85
2022/07/14 10:34:08;;;;;;;2.88;1.20;;;;;;;;;;4917264;29;20060;-83
2022/07/14 10:37:07;;;;;;;3.40;1.30;;;;;;;;;;4914474;29;20040;-86
2022/07/14 10:40:08;;;;;;;5.70;1.40;;;;;;;;;;4911180;29;20048;-84
2022/07/14 10:43:07;;;;;;;2.42;1.10;;;;;;;;;;4925469;29;20047;-82
2022/07/14 10:45:54;;;;;;;3.25;1.30;;;;;;;;;;4906131;29;20040;-83
2022/07/14 10:48:48;;;;;;;2.95;1.23;;;;;;;;;;4927054;29;20048;-85
2022/07/14 10:51:42;;;;;;;1.40;1.30;;;;;;;;;;4920176;29;20048;-82
2022/07/14 10:54:31;;;;;;;1.85;1.20;;;;;;;;;;4920137;29;20036;-83
2022/07/14 10:57:17;;;;;;;2.10;1.30;;;;;;;;;;4926582;29;20044;-85
2022/07/14 11:00:04;;;;;;;3.13;1.20;;;;;;;;;;4920314;29;20052;-82
2022/07/14 11:02:49;;;;;;;2.03;1.50;;;;;;;;;;4920292;29;20044;-82
2022/07/14 11:06:00;;;;;;;2.83;1.30;;;;;;;;;;4919865;29;20063;-83
2022/07/14 11:09:28;;;;;;;4.03;1.40;;;;;;;;;;4926012;29;20036;-82
2022/07/14 11:12:14;;;;;;;2.08;1.40;;;;;;;;;;4921024;29;20043;-81
2022/07/14 11:15:00;;;;;;;3.35;1.30;;;;;;;;;;4915371;29;20044;-81
2022/07/14 11:17:45;;;;;;;6.05;1.50;;;;;;;;;;4922844;29;20044;-81
2022/07/14 11:20:50;;;;;;;6.22;1.60;;;;;;;;;;4924205;29;20040;-83
2022/07/14 11:23:37;;;;;;;3.25;1.17;;;;;;;;;;4907337;29;20380;-81
2022/07/14 11:26:35;;;;;;;3.58;1.20;;;;;;;;;;4918944;29;20040;-81
2022/07/14 11:29:31;;;;;;;4.90;1.23;;;;;;;;;;4922057;29;20036;-83
2022/07/14 11:32:36;;;;;;;3.83;1.27;;;;;;;;;;4916874;29;20055;-82
2022/07/14 11:38:45;;;;;;;3.72;1.42;;;;;;;;;;4924906;29;20044;-81
2022/07/14 11:41:43;;;;;;;2.97;1.40;;;;;;;;;;4921915;29;20384;-83
2022/07/14 11:44:43;;;;;;;2.95;1.30;;;;;;;;;;4919173;29;20048;-82
2022/07/14 11:47:29;;;;;;;3.67;1.30;;;;;;;;;;4925151;29;20044;-81
2022/07/14 11:50:15;;;;;;;4.32;1.55;;;;;;;;;;4912194;29;20044;-82
2022/07/14 11:53:01;;;;;;;4.88;1.40;;;;;;;;;;4925314;29;20044;-81
2022/07/14 11:55:47;;;;;;;1.83;1.40;;;;;;;;;;4925081;29;20056;-81
2022/07/14 11:58:33;;;;;;;2.05;1.20;;;;;;;;;;4919026;29;20052;-84
2022/07/14 12:01:20;;;;;;;5.40;1.52;;;;;;;;;;4912233;29;20044;-84
2022/07/14 12:04:20;;;;;;;3.20;1.10;;;;;;;;;;4899947;29;20484;-82
2022/07/14 12:07:05;;;;;;;3.25;1.27;;;;;;;;;;4916985;29;20036;-84
2022/07/14 12:09:52;;;;;;;12.10;1.40;;;;;;;;;;4924268;29;20040;-83
2022/07/14 12:12:42;;;;;;;3.15;1.50;;;;;;;;;;4917417;29;20507;-83
2022/07/14 12:15:30;;;;;;;5.13;1.55;;;;;;;;;;4912221;29;20040;-83
2022/07/14 12:18:15;;;;;;;3.08;1.70;;;;;;;;;;4938903;29;20051;-84
2022/07/14 12:21:01;;;;;;;1.83;1.20;;;;;;;;;;4952916;29;20039;-84
2022/07/14 12:23:57;;;;;;;9.38;2.15;;;;;;;;;;4944354;29;20055;-82
2022/07/14 12:26:43;;;;;;;3.70;1.50;;;;;;;;;;4937882;29;20044;-83
2022/07/14 12:29:30;;;;;;;4.45;1.30;;;;;;;;;;4938036;29;20051;-84
2022/07/14 12:32:16;;;;;;;7.07;1.85;;;;;;;;;;4952555;28;20043;-82
2022/07/14 12:35:02;;;;;;;4.97;1.27;;;;;;;;;;4943221;29;20456;-82
2022/07/14 12:37:50;;;;;;;2.90;1.33;;;;;;;;;;4937673;29;20039;-82
2022/07/14 12:40:36;;;;;;;3.30;1.48;;;;;;;;;;4937594;29;20472;-83
2022/07/14 12:43:22;;;;;;;3.75;1.45;;;;;;;;;;4943714;29;20056;-84
2022/07/14 12:46:11;;;;;;;10.65;1.63;;;;;;;;;;4937589;29;20051;-83
2022/07/14 12:48:58;;;;;;;2.88;1.20;;;;;;;;;;4940691;29;20039;-83
2022/07/14 12:51:45;;;;;;;2.28;1.20;;;;;;;;;;4956311;29;20047;-85
2022/07/14 12:54:32;;;;;;;11.63;1.80;;;;;;;;;;4962831;28;20042;-85
2022/07/14 12:57:23;;;;;;;6.00;1.38;;;;;;;;;;4943077;29;20390;-83
2022/07/14 13:00:14;;;;;;;3.10;1.40;;;;;;;;;;4919951;29;20384;-83
2022/07/14 13:03:19;;;;;;;3.33;1.30;;;;;;;;;;4917374;29;20047;-81
2022/07/14 13:06:05;;;;;;;3.00;1.13;;;;;;;;;;4925828;29;20040;-85
2022/07/14 13:08:51;;;;;;;4.15;1.25;;;;;;;;;;4943734;29;20052;-84
2022/07/14 13:11:36;;;;;;;3.35;1.65;;;;;;;;;;4935192;29;20040;-84
2022/07/14 13:14:21;;;;;;;4.30;1.20;;;;;;;;;;4936804;29;20387;-84
2022/07/14 13:17:06;;;;;;;4.40;1.20;;;;;;;;;;4927842;29;20052;-84
2022/07/14 13:19:51;;;;;;;4.90;2.30;;;;;;;;;;4936443;29;20039;-86
2022/07/14 13:22:36;;;;;;;4.22;1.70;;;;;;;;;;4936901;29;20051;-84
2022/07/14 13:25:22;;;;;;;3.40;1.50;;;;;;;;;;4942654;29;20043;-86
2022/07/14 13:28:11;;;;;;;2.92;1.20;;;;;;;;;;4936967;29;20407;-86
2022/07/14 13:30:56;;;;;;;2.20;1.23;;;;;;;;;;4936643;29;20052;-87
2022/07/14 13:33:44;;;;;;;2.35;1.30;;;;;;;;;;4936996;29;20110;-84
2022/07/14 13:36:30;;;;;;;1.95;1.40;;;;;;;;;;4936530;29;20036;-85
2022/07/14 13:39:15;;;;;;;5.05;1.63;;;;;;;;;;4942788;29;20047;-85
2022/07/14 13:42:01;;;;;;;5.82;1.38;;;;;;;;;;4942680;29;20044;-84
2022/07/14 13:44:46;;;;;;;3.97;1.52;;;;;;;;;;4936458;29;20052;-85
2022/07/14 13:47:31;;;;;;;2.20;1.35;;;;;;;;;;4937094;29;20040;-85
2022/07/14 13:53:21;;;;;;;3.77;1.70;;;;;;;;;;4936207;29;20051;-85
2022/07/14 13:56:07;;;;;;;2.47;1.40;;;;;;;;;;4949012;29;20043;-84
2022/07/14 13:58:52;;;;;;;4.05;1.33;;;;;;;;;;4942268;29;20035;-85
2022/07/14 14:01:38;;;;;;;3.40;1.60;;;;;;;;;;4940363;29;20047;-85
2022/07/14 14:04:23;;;;;;;2.25;1.33;;;;;;;;;;4926509;29;20055;-85
2022/07/14 14:07:09;;;;;;;3.97;1.27;;;;;;;;;;4935051;29;20039;-86
2022/07/14 14:09:54;;;;;;;3.95;1.15;;;;;;;;;;4943057;29;20043;-84
2022/07/14 14:12:40;;;;;;;2.65;1.50;;;;;;;;;;4948134;29;20475;-85
2022/07/14 14:15:31;;;;;;;3.28;1.45;;;;;;;;;;4934380;29;20048;-86
2022/07/14 14:18:16;;;;;;;6.07;1.42;;;;;;;;;;4938773;29;20052;-86
2022/07/14 14:21:03;;;;;;;2.70;1.30;;;;;;;;;;4923153;29;20047;-85
2022/07/14 14:23:48;;;;;;;8.90;1.50;;;;;;;;;;4923552;29;20047;-86
2022/07/14 14:26:34;;;;;;;6.70;1.45;;;;;;;;;;4923192;29;20048;-85
2022/07/14 14:29:19;;;;;;;6.50;1.40;;;;;;;;;;4915224;29;20047;-85
2022/07/14 14:32:05;;;;;;;6.07;1.80;;;;;;;;;;4930166;29;20380;-87
2022/07/14 14:34:54;;;;;;;3.80;2.45;;;;;;;;;;4922170;29;20103;-87
2022/07/14 14:37:40;;;;;;;4.53;1.70;;;;;;;;;;4928422;29;20416;-86
2022/07/14 14:40:26;;;;;;;2.80;1.60;;;;;;;;;;4926159;29;20043;-86
2022/07/14 14:43:12;;;;;;;2.38;1.20;;;;;;;;;;4926918;29;20452;-88
2022/07/14 14:46:10;;;;;;;6.32;1.45;;;;;;;;;;4914250;29;20047;-87
2022/07/14 14:49:18;;;;;;;7.18;2.83;;;;;;;;;;4921075;29;20052;-86
2022/07/14 14:52:33;;;;;;;4.80;2.25;;;;;;;;;;4910354;29;20416;-87
2022/07/14 14:55:31;;;;;;;2.65;1.40;;;;;;;;;;4911930;29;20056;-87
2022/07/14 14:58:16;;;;;;;11.43;5.80;;;;;;;;;;4909434;29;20052;-87
2022/07/14 15:01:02;;;;;;;5.38;3.72;;;;;;;;;;4910483;29;20048;-86
2022/07/14 15:03:47;;;;;;;10.48;2.17;;;;;;;;;;4906918;29;20039;-85
2022/07/14 15:06:33;;;;;;;3.80;1.65;;;;;;;;;;4908463;29;20044;-85
2022/07/14 15:09:18;;;;;;;6.47;1.40;;;;;;;;;;4900666;29;20044;-86
2022/07/14 15:12:04;;;;;;;2.95;1.42;;;;;;;;;;4901276;29;20048;-86
2022/07/14 15:14:51;;;;;;;5.90;1.52;;;;;;;;;;4907165;29;20037;-86
2022/07/14 15:17:36;;;;;;;9.32;1.60;;;;;;;;;;4905701;29;20052;-86
2022/07/14 15:20:22;;;;;;;5.57;1.50;;;;;;;;;;4887051;29;20040;-87
2022/07/14 15:23:32;;;;;;;4.38;1.48;;;;;;;;;;4900806;29;20480;-84
2022/07/14 15:27:13;;;;;;;4.00;1.70;;;;;;;;;;4907400;29;20491;-86
2022/07/14 15:31:04;;;;;;;;;;;;;;;;;;;;;
2022/07/14 15:33:58;;;;;;;3.13;1.50;;;;;;;;;;4907069;29;20041;-86
2022/07/14 15:45:28;;;;;;;5.93;1.80;;;;;;;;;;4906245;29;20056;-87
2022/07/14 15:48:16;;;;;;;5.35;1.58;;;;;;;;;;4906989;29;20048;-86
2022/07/14 15:55:49;;;;;;;3.10;1.65;;;;;;;;;;4846932;29;20548;-87
2022/07/14 15:58:42;;;;;;;4.80;1.45;;;;;;;;;;4848336;29;20421;-87
2022/07/14 16:01:28;;;;;;;4.57;1.40;;;;;;;;;;4867228;29;20053;-88
2022/07/14 16:05:07;;;;;;;;;;;;;;;;;;;;;
2022/07/14 16:08:18;;;;;;;6.35;1.63;;;;;;;;;;4900076;29;20052;-87
2022/07/14 16:11:03;;;;;;;1.92;1.20;;;;;;;;;;4900335;29;20040;-85
2022/07/14 16:13:51;;;;;;;3.85;1.60;;;;;;;;;;4899354;29;20040;-86
2022/07/14 16:16:42;;;;;;;2.22;1.40;;;;;;;;;;4889777;29;20044;-86
2022/07/14 16:19:55;;;;;;;3.20;1.40;;;;;;;;;;4872946;29;20048;-87
2022/07/14 16:22:42;;;;;;;3.95;1.60;;;;;;;;;;4899684;29;20476;-87
2022/07/14 16:25:40;;;;;;;6.45;1.60;;;;;;;;;;4886142;29;20049;-86
2022/07/14 16:28:26;;;;;;;4.07;1.65;;;;;;;;;;4899581;29;20423;-86
2022/07/14 16:31:16;;;;;;;4.28;1.50;;;;;;;;;;4899808;29;20049;-87
2022/07/14 16:34:08;;;;;;;6.18;1.73;;;;;;;;;;4891842;29;20048;-87
2022/07/14 16:36:56;;;;;;;2.53;1.40;;;;;;;;;;4899643;29;20040;-86
2022/07/14 16:39:42;;;;;;;1.55;1.35;;;;;;;;;;4899690;29;20056;-87
2022/07/14 16:42:34;;;;;;;4.28;1.60;;;;;;;;;;4899340;29;20041;-87
2022/07/14 16:45:31;;;;;;;4.45;1.40;;;;;;;;;;4893496;29;20048;-86
2022/07/14 16:48:22;;;;;;;4.65;1.60;;;;;;;;;;4899298;29;20052;-87
2022/07/14 16:51:19;;;;;;;;;;;;;;;;;;4899822;29;20044;-86
2022/07/14 16:54:14;;;;;;;4.15;2.22;;;;;;;;;;4902275;29;19911;-88
2022/07/14 16:57:20;;;;;;;2.67;1.60;;;;;;;;;;4917925;29;20040;-87
2022/07/14 17:03:39;;;;;;;2.40;1.42;;;;;;;;;;4917785;29;20036;-86
2022/07/14 17:06:38;;;;;;;5.97;1.65;;;;;;;;;;4909943;29;20047;-88
2022/07/14 17:12:58;;;;;;;6.47;2.00;;;;;;;;;;4906310;29;20044;-87
2022/07/14 17:16:22;;;;;;;3.88;1.40;;;;;;;;;;4920383;29;20044;-88
2022/07/14 17:19:11;;;;;;;;;;;;;;;;;;4917656;29;20056;-87
2022/07/14 17:22:08;;;;;;;8.15;1.55;;;;;;;;;;4907260;29;19915;-87
2022/07/14 17:24:53;;;;;;;4.75;1.30;;;;;;;;;;4922828;29;20044;-85
2022/07/14 17:27:38;;;;;;;8.27;1.60;;;;;;;;;;4914731;29;20032;-85
2022/07/14 17:30:24;;;;;;;7.65;1.95;;;;;;;;;;4913730;29;20472;-85